| time (UTC) | temp C | wind direction | speed KPH | gust KPH | rain 1hr cm | rain 24hr cm | rain mn cm | humidity % | barometer mb |
| 20260502123805 | 17 | 126 | 11.3 | 19.3 | 0.00 | 0.48 | 0.00 | 69 | 1024.3 |
| 20260502123305 | 17 | 103 | 14.5 | 20.9 | 0.00 | 0.48 | 0.00 | 69 | 1024.0 |
| 20260502122306 | 17 | 89 | 14.5 | 22.5 | 0.00 | 0.48 | 0.00 | 70 | 1024.4 |
| 20260502121805 | 17 | 130 | 8.0 | 22.5 | 0.00 | 0.48 | 0.00 | 71 | 1024.0 |
| 20260502121304 | 17 | 109 | 8.0 | 19.3 | 0.00 | 0.48 | 0.00 | 73 | 1024.3 |
| 20260502120805 | 16 | 102 | 11.3 | 19.3 | 0.00 | 0.48 | 0.00 | 74 | 1024.4 |
| 20260502120305 | 16 | 118 | 11.3 | 16.1 | 0.00 | 0.48 | 0.00 | 74 | 1024.4 |
| 20260502115804 | 17 | 117 | 6.4 | 14.5 | 0.00 | 0.48 | 0.00 | 74 | 1024.4 |
| 20260502115306 | 17 | 148 | 6.4 | 12.9 | 0.00 | 0.48 | 0.00 | 72 | 1024.4 |
| 20260502114804 | 16 | 107 | 11.3 | 19.3 | 0.00 | 0.48 | 0.00 | 72 | 1024.4 |
| 20260502113804 | 17 | 131 | 9.7 | 14.5 | 0.00 | 0.48 | 0.00 | 73 | 1024.6 |
| 20260502113305 | 16 | 127 | 9.7 | 12.9 | 0.00 | 0.48 | 0.00 | 73 | 1024.7 |
| 20260502112804 | 16 | 83 | 12.9 | 20.9 | 0.00 | 0.48 | 0.00 | 74 | 1024.7 |
| 20260502112306 | 17 | 166 | 6.4 | 16.1 | 0.00 | 0.48 | 0.00 | 72 | 1024.7 |
| 20260502111804 | 17 | 106 | 9.7 | 19.3 | 0.00 | 0.48 | 0.00 | 72 | 1024.7 |
| 20260502111305 | 17 | 73 | 9.7 | 19.3 | 0.00 | 0.48 | 0.00 | 72 | 1024.7 |
| 20260502110805 | 17 | 82 | 12.9 | 19.3 | 0.00 | 0.48 | 0.00 | 72 | 1024.7 |
| 20260502110304 | 16 | 97 | 11.3 | 20.9 | 0.00 | 0.48 | 0.00 | 70 | 1025.1 |
| 20260502105804 | 16 | 117 | 14.5 | 22.5 | 0.00 | 0.48 | 0.00 | 70 | 1024.7 |
| 20260502105306 | 16 | 97 | 11.3 | 20.9 | 0.00 | 0.48 | 0.00 | 70 | 1024.9 |
| 20260502104304 | 16 | 141 | 9.7 | 14.5 | 0.00 | 0.48 | 0.00 | 74 | 1024.7 |
| 20260502103804 | 16 | 84 | 16.1 | 27.4 | 0.00 | 0.48 | 0.00 | 74 | 1024.8 |
| 20260502103305 | 16 | 104 | 8.0 | 14.5 | 0.00 | 0.48 | 0.00 | 75 | 1024.9 |
| 20260502102306 | 16 | 55 | 6.4 | 14.5 | 0.00 | 0.48 | 0.00 | 77 | 1025.1 |
| 20260502101804 | 16 | 115 | 9.7 | 19.3 | 0.00 | 0.48 | 0.00 | 77 | 1025.1 |
| 20260502101305 | 16 | 83 | 9.7 | 16.1 | 0.00 | 0.48 | 0.00 | 77 | 1025.1 |
| 20260502100805 | 16 | 97 | 11.3 | 16.1 | 0.00 | 0.48 | 0.00 | 77 | 1025.2 |
| 20260502100304 | 16 | 224 | 4.8 | 12.9 | 0.00 | 0.48 | 0.00 | 79 | 1025.1 |
| 20260502091305 | 15 | 109 | 6.4 | 12.9 | 0.00 | 0.48 | 0.00 | 83 | 1025.4 |
| 20260502090805 | 15 | 143 | 4.8 | 12.9 | 0.00 | 0.48 | 0.00 | 83 | 1025.4 |
| 20260502071304 | 13 | 88 | 6.4 | 16.1 | 0.00 | 0.48 | 0.00 | 92 | 1025.7 |
| 20260502070805 | 13 | 99 | 6.4 | 20.9 | 0.00 | 0.51 | 0.00 | 93 | 1025.7 |
| 20260502070305 | 13 | 73 | 14.5 | 20.9 | 0.00 | 0.51 | 0.00 | 92 | 1025.7 |
| 20260502065805 | 13 | 86 | 9.7 | 16.1 | 0.00 | 0.53 | 0.00 | 92 | 1025.7 |
| 20260502065306 | 13 | 105 | 9.7 | 16.1 | 0.00 | 0.53 | 0.00 | 92 | 1025.4 |
| 20260502064806 | 13 | 99 | 8.0 | 20.9 | 0.00 | 0.56 | 0.00 | 92 | 1025.4 |
| 20260502064305 | 13 | 87 | 8.0 | 20.9 | 0.00 | 0.56 | 0.00 | 92 | 1025.3 |
| 20260502063305 | 12 | 58 | 6.4 | 14.5 | 0.00 | 0.61 | 0.00 | 93 | 1025.4 |
| 20260502062805 | 12 | 72 | 4.8 | 12.9 | 0.00 | 0.61 | 0.00 | 93 | 1025.3 |
| 20260502062306 | 12 | 89 | 9.7 | 12.9 | 0.00 | 0.61 | 0.00 | 93 | 1025.4 |
| 20260502061805 | 12 | 69 | 9.7 | 14.5 | 0.00 | 0.61 | 0.00 | 93 | 1025.4 |
| 20260502061305 | 12 | 100 | 8.0 | 14.5 | 0.00 | 0.61 | 0.00 | 93 | 1025.3 |
| 20260502060804 | 12 | 84 | 8.0 | 16.1 | 0.00 | 0.61 | 0.00 | 93 | 1025.4 |
| 20260502055306 | 12 | 97 | 4.8 | 14.5 | 0.00 | 0.61 | 0.00 | 94 | 1025.4 |
| 20260502053804 | 12 | 70 | 11.3 | 16.1 | 0.00 | 0.61 | 0.00 | 94 | 1025.1 |
| 20260502053304 | 12 | 84 | 11.3 | 12.9 | 0.00 | 0.61 | 0.00 | 94 | 1025.3 |
| 20260502052804 | 12 | 74 | 6.4 | 11.3 | 0.00 | 0.61 | 0.00 | 94 | 1025.4 |
| 20260502052306 | 12 | 81 | 8.0 | 16.1 | 0.00 | 0.61 | 0.00 | 94 | 1025.1 |
| 20260502051305 | 12 | 108 | 8.0 | 12.9 | 0.00 | 0.61 | 0.00 | 93 | 1025.1 |
| 20260502050804 | 12 | 62 | 8.0 | 19.3 | 0.00 | 0.61 | 0.00 | 93 | 1025.1 |
| 20260502050304 | 12 | 81 | 11.3 | 19.3 | 0.00 | 0.61 | 0.00 | 92 | 1025.1 |
| 20260502045804 | 12 | 72 | 11.3 | 20.9 | 0.00 | 0.61 | 0.00 | 92 | 1025.1 |
| 20260502045306 | 12 | 69 | 9.7 | 14.5 | 0.00 | 0.61 | 0.00 | 92 | 1025.1 |
| 20260502044804 | 12 | 93 | 9.7 | 16.1 | 0.00 | 0.61 | 0.00 | 92 | 1025.0 |
| 20260502044304 | 12 | 69 | 11.3 | 16.1 | 0.00 | 0.61 | 0.00 | 93 | 1025.1 |
| 20260502043304 | 12 | 139 | 6.4 | 11.3 | 0.00 | 0.61 | 0.00 | 93 | 1025.4 |
| 20260502042804 | 12 | 99 | 6.4 | 12.9 | 0.00 | 0.61 | 0.00 | 93 | 1025.4 |
| 20260502042306 | 12 | 110 | 8.0 | 14.5 | 0.00 | 0.61 | 0.00 | 93 | 1025.4 |
| 20260502041805 | 12 | 97 | 4.8 | 12.9 | 0.00 | 0.61 | 0.00 | 93 | 1025.4 |
| 20260502041305 | 12 | 82 | 9.7 | 14.5 | 0.00 | 0.61 | 0.00 | 93 | 1025.4 |